createdAt,value
2019-05-29T00:02:31.405Z,12.00
2019-05-29T00:05:35.873Z,11.90
2019-05-29T00:08:40.325Z,11.90
2019-05-29T00:11:44.765Z,11.90
2019-05-29T00:14:49.211Z,11.90
2019-05-29T00:17:53.665Z,11.90
2019-05-29T00:20:58.124Z,12.10
2019-05-29T00:24:02.577Z,12.10
2019-05-29T00:27:07.388Z,12.20
2019-05-29T00:30:13.467Z,12.30
2019-05-29T00:33:18.361Z,12.40
2019-05-29T00:36:22.876Z,12.60
2019-05-29T00:39:27.328Z,12.70
2019-05-29T00:42:31.769Z,12.70
2019-05-29T00:45:36.219Z,12.80
2019-05-29T00:48:40.676Z,12.80
2019-05-29T00:51:45.462Z,12.90
2019-05-29T00:54:49.904Z,12.90
2019-05-29T00:57:54.607Z,12.90
2019-05-29T01:00:59.065Z,12.90
2019-05-29T01:04:03.525Z,12.90
2019-05-29T01:07:07.979Z,12.90
2019-05-29T01:10:13.228Z,12.90
2019-05-29T01:13:17.678Z,12.80
2019-05-29T01:16:22.143Z,12.60
2019-05-29T01:19:26.601Z,12.60
2019-05-29T01:22:31.095Z,12.60
2019-05-29T01:25:35.546Z,12.60
2019-05-29T01:28:39.990Z,12.60
2019-05-29T01:31:44.450Z,12.60
2019-05-29T01:34:49.225Z,12.60
2019-05-29T01:37:53.995Z,12.70
2019-05-29T01:40:58.416Z,12.70
2019-05-29T01:44:03.045Z,12.60
2019-05-29T01:47:07.496Z,12.60
2019-05-29T01:50:12.457Z,12.60
2019-05-29T01:53:17.685Z,12.60
2019-05-29T01:56:23.823Z,12.60
2019-05-29T01:59:28.482Z,12.60
2019-05-29T02:02:33.245Z,12.60
2019-05-29T02:05:37.698Z,12.60
2019-05-29T02:08:42.140Z,12.60
2019-05-29T02:11:46.660Z,12.60
2019-05-29T02:14:51.110Z,12.60
2019-05-29T02:17:55.548Z,12.50
2019-05-29T02:21:00.021Z,12.50
2019-05-29T02:24:04.531Z,12.50
2019-05-29T02:27:09.060Z,12.40
2019-05-29T02:30:14.130Z,12.30
2019-05-29T02:33:19.605Z,12.30
2019-05-29T02:36:24.736Z,12.20
2019-05-29T02:39:30.448Z,12.30
2019-05-29T02:42:34.893Z,12.30
2019-05-29T02:45:53.941Z,12.20
2019-05-29T02:48:45.570Z,12.10
2019-05-29T02:51:50.572Z,12.10
2019-05-29T02:54:55.019Z,12.20
2019-05-29T02:57:59.467Z,12.20
2019-05-29T03:01:03.925Z,12.20
2019-05-29T03:04:08.391Z,12.20
2019-05-29T03:07:12.832Z,12.20
2019-05-29T03:10:17.350Z,12.30
2019-05-29T03:13:23.091Z,12.20
2019-05-29T03:16:28.776Z,12.20
2019-05-29T03:19:34.670Z,12.20
2019-05-29T03:22:39.817Z,12.20
2019-05-29T03:25:44.280Z,12.20
2019-05-29T03:28:48.733Z,12.20
2019-05-29T03:31:53.183Z,12.20
2019-05-29T03:34:57.927Z,12.20
2019-05-29T03:38:02.385Z,12.20
2019-05-29T03:41:06.849Z,12.20
2019-05-29T03:44:11.309Z,12.20
2019-05-29T03:47:15.747Z,12.10
2019-05-29T03:50:20.477Z,12.20
2019-05-29T03:53:27.055Z,12.10
2019-05-29T03:56:32.604Z,12.10
2019-05-29T03:59:37.515Z,12.20
2019-05-29T04:02:42.195Z,12.10
2019-05-29T04:05:46.973Z,12.20
2019-05-29T04:08:51.426Z,12.00
2019-05-29T04:11:56.354Z,11.90
2019-05-29T04:15:00.803Z,11.80
2019-05-29T04:18:06.897Z,11.80
2019-05-29T04:21:12.595Z,11.90
2019-05-29T04:24:19.289Z,11.90
2019-05-29T04:27:29.935Z,12.00
2019-05-29T04:30:39.145Z,11.90
2019-05-29T04:33:43.883Z,11.90
2019-05-29T04:36:48.341Z,12.00
2019-05-29T04:39:52.865Z,12.10
2019-05-29T04:42:57.795Z,12.10
2019-05-29T04:46:02.508Z,12.20
2019-05-29T04:49:07.009Z,12.20
2019-05-29T04:52:11.469Z,12.20
2019-05-29T04:55:16.186Z,12.20
2019-05-29T04:58:20.645Z,12.20
2019-05-29T05:01:25.100Z,12.20
2019-05-29T05:04:29.553Z,12.30
2019-05-29T05:07:35.276Z,12.20
2019-05-29T05:10:41.548Z,12.30
2019-05-29T05:13:46.580Z,12.30
2019-05-29T05:16:51.049Z,12.30
2019-05-29T05:19:55.499Z,12.30
2019-05-29T05:22:59.952Z,12.40
2019-05-29T05:26:04.473Z,12.50
2019-05-29T05:29:08.993Z,12.50
2019-05-29T05:32:13.771Z,12.60
2019-05-29T05:35:18.245Z,12.60
2019-05-29T05:38:22.694Z,12.60
2019-05-29T05:41:27.144Z,12.60
2019-05-29T05:44:32.754Z,12.60
2019-05-29T05:47:49.976Z,12.70
2019-05-29T05:50:43.447Z,12.70
2019-05-29T05:53:48.234Z,12.70
2019-05-29T05:56:53.688Z,12.60
2019-05-29T05:59:58.606Z,12.60
2019-05-29T06:03:03.055Z,12.70
2019-05-29T06:06:07.507Z,12.70
2019-05-29T06:09:12.032Z,12.80
2019-05-29T06:12:16.490Z,12.90
2019-05-29T06:15:21.347Z,12.80
2019-05-29T06:18:25.804Z,12.90
2019-05-29T06:21:30.252Z,12.90
2019-05-29T06:24:35.062Z,13.00
2019-05-29T06:27:39.640Z,13.10
2019-05-29T06:30:45.096Z,13.10
2019-05-29T06:33:49.700Z,13.10
2019-05-29T06:36:54.140Z,13.20
2019-05-29T06:39:58.599Z,13.20
2019-05-29T06:43:03.044Z,13.20
2019-05-29T06:46:07.496Z,13.30
2019-05-29T06:49:11.958Z,13.30
2019-05-29T06:52:16.406Z,13.30
2019-05-29T06:55:20.874Z,13.30
2019-05-29T06:58:25.339Z,13.20
2019-05-29T07:01:29.781Z,13.30
2019-05-29T07:04:34.234Z,13.20
2019-05-29T07:07:40.166Z,13.20
2019-05-29T07:10:44.814Z,13.20
2019-05-29T07:13:50.586Z,13.30
2019-05-29T07:16:56.396Z,13.40
2019-05-29T07:20:04.071Z,13.50
2019-05-29T07:23:07.591Z,13.50
2019-05-29T07:26:12.062Z,13.70
2019-05-29T07:29:16.815Z,13.70
2019-05-29T07:32:21.264Z,13.80
2019-05-29T07:35:25.726Z,13.80
2019-05-29T07:38:30.242Z,13.90
2019-05-29T07:41:34.685Z,13.90
2019-05-29T07:44:39.958Z,13.90
2019-05-29T07:47:44.840Z,13.90
2019-05-29T07:51:04.465Z,13.90
2019-05-29T07:53:55.932Z,13.90
2019-05-29T07:57:00.337Z,13.90
2019-05-29T08:00:08.243Z,14.00
2019-05-29T08:03:12.758Z,13.90
2019-05-29T08:06:17.479Z,13.90
2019-05-29T08:09:22.014Z,14.00
2019-05-29T08:12:26.750Z,14.00
2019-05-29T08:15:31.210Z,14.00
2019-05-29T08:18:35.673Z,14.00
2019-05-29T08:21:40.963Z,14.00
2019-05-29T08:24:47.765Z,14.10
2019-05-29T08:27:52.459Z,14.10
2019-05-29T08:30:57.168Z,14.20
2019-05-29T08:34:01.621Z,14.30
2019-05-29T08:37:07.450Z,14.40
2019-05-29T08:40:13.817Z,14.50
2019-05-29T08:43:18.547Z,14.60
2019-05-29T08:46:23.012Z,14.70
2019-05-29T08:49:27.451Z,14.90
2019-05-29T08:52:31.900Z,15.00
2019-05-29T08:55:36.352Z,15.30
2019-05-29T08:58:42.772Z,15.40
2019-05-29T09:01:48.632Z,15.60
2019-05-29T09:04:54.915Z,15.70
2019-05-29T09:07:59.526Z,15.70
2019-05-29T09:11:03.998Z,15.70
2019-05-29T09:14:08.426Z,15.80
2019-05-29T09:17:14.551Z,15.80
2019-05-29T09:20:34.059Z,15.80
2019-05-29T09:23:25.578Z,15.80
2019-05-29T09:26:30.321Z,15.80
2019-05-29T09:29:34.767Z,15.80
2019-05-29T09:32:50.527Z,15.80
2019-05-29T09:35:45.393Z,15.80
2019-05-29T09:38:50.317Z,15.80
2019-05-29T09:41:54.948Z,15.80
2019-05-29T09:44:59.394Z,15.90
2019-05-29T09:48:04.083Z,16.00
2019-05-29T09:51:20.807Z,16.10
2019-05-29T09:54:14.802Z,16.30
2019-05-29T09:57:19.560Z,16.40
2019-05-29T10:00:24.603Z,16.50
2019-05-29T10:03:29.038Z,16.50
2019-05-29T10:06:33.513Z,16.60
2019-05-29T10:09:37.950Z,16.70
2019-05-29T10:12:42.420Z,16.70
2019-05-29T10:15:46.873Z,16.80
2019-05-29T10:18:51.328Z,16.90
2019-05-29T10:21:56.714Z,16.90
2019-05-29T10:25:02.053Z,16.90
2019-05-29T10:28:06.497Z,16.90
2019-05-29T10:31:11.022Z,16.90
2019-05-29T10:34:15.543Z,16.80
2019-05-29T10:37:20.105Z,16.70
2019-05-29T10:40:24.882Z,16.60
2019-05-29T10:43:34.332Z,16.50
2019-05-29T10:46:35.779Z,16.50
2019-05-29T10:49:40.223Z,16.50
2019-05-29T10:52:45.761Z,16.40
2019-05-29T10:55:50.518Z,16.40
2019-05-29T10:58:59.491Z,16.40
2019-05-29T11:02:01.190Z,16.40
2019-05-29T11:05:07.887Z,16.40
2019-05-29T11:08:12.332Z,16.50
2019-05-29T11:11:17.089Z,16.50
2019-05-29T11:14:21.824Z,16.50
2019-05-29T11:17:26.274Z,16.50
2019-05-29T11:20:30.770Z,16.40
2019-05-29T11:23:35.228Z,16.40
2019-05-29T11:26:39.668Z,16.40
2019-05-29T11:29:44.130Z,16.50
2019-05-29T11:32:50.246Z,16.60
2019-05-29T11:36:07.358Z,16.60
2019-05-29T11:39:06.037Z,16.60
2019-05-29T11:42:08.321Z,16.60
2019-05-29T11:45:13.514Z,16.70
2019-05-29T11:48:17.968Z,16.60
2019-05-29T11:51:22.702Z,16.50
2019-05-29T11:54:27.156Z,16.50
2019-05-29T11:57:31.994Z,16.40
2019-05-29T12:00:36.497Z,16.40
2019-05-29T12:04:05.272Z,16.30
2019-05-29T12:06:47.121Z,16.20
2019-05-29T12:09:51.577Z,16.20
2019-05-29T12:12:56.041Z,16.20
2019-05-29T12:16:00.478Z,16.20
2019-05-29T12:19:05.480Z,16.20
2019-05-29T12:22:10.099Z,16.30
2019-05-29T12:25:15.243Z,16.30
2019-05-29T12:28:19.686Z,16.40
2019-05-29T12:31:24.129Z,16.80
2019-05-29T12:34:28.920Z,17.10
2019-05-29T12:37:33.653Z,17.20
2019-05-29T12:40:38.112Z,17.10
2019-05-29T12:43:42.910Z,16.80
2019-05-29T12:46:47.630Z,16.60
2019-05-29T12:49:53.573Z,16.30
2019-05-29T12:52:59.452Z,16.20
2019-05-29T12:56:04.753Z,16.10
2019-05-29T12:59:09.195Z,16.00
2019-05-29T13:02:13.674Z,16.00
2019-05-29T13:05:20.706Z,16.00
2019-05-29T13:08:25.033Z,16.10
2019-05-29T13:11:29.472Z,16.30
2019-05-29T13:14:33.927Z,16.40
2019-05-29T13:17:38.374Z,16.50
2019-05-29T13:20:43.160Z,16.70
2019-05-29T13:23:47.601Z,16.80
2019-05-29T13:26:52.052Z,16.80
2019-05-29T13:29:59.897Z,16.70
2019-05-29T13:33:05.278Z,16.90
2019-05-29T13:36:08.872Z,16.90
2019-05-29T13:39:13.313Z,17.00
2019-05-29T13:42:17.753Z,17.00
2019-05-29T13:45:23.507Z,16.90
2019-05-29T13:48:27.943Z,16.90
2019-05-29T13:51:32.726Z,16.80
2019-05-29T13:54:37.166Z,16.70
2019-05-29T13:57:41.609Z,16.70
2019-05-29T14:00:46.064Z,16.60
2019-05-29T14:03:50.868Z,16.60
2019-05-29T14:06:55.371Z,16.50
2019-05-29T14:10:00.885Z,16.30
2019-05-29T14:13:07.511Z,16.20
2019-05-29T14:16:12.969Z,16.10
2019-05-29T14:19:17.765Z,16.00
2019-05-29T14:22:22.218Z,15.90
2019-05-29T14:25:26.662Z,15.80
2019-05-29T14:28:31.103Z,15.80
2019-05-29T14:31:35.631Z,15.80
2019-05-29T14:34:40.402Z,15.80
2019-05-29T14:37:44.847Z,15.90
2019-05-29T14:40:49.298Z,16.10
2019-05-29T14:43:54.942Z,16.20
2019-05-29T14:46:59.405Z,16.40
2019-05-29T14:50:06.486Z,16.50
2019-05-29T14:53:11.388Z,16.70
2019-05-29T14:56:16.782Z,16.90
2019-05-29T14:59:21.288Z,17.10
2019-05-29T15:02:25.855Z,17.20
2019-05-29T15:05:30.307Z,17.50
2019-05-29T15:08:35.085Z,17.50
2019-05-29T15:11:39.544Z,17.50
2019-05-29T15:14:44.058Z,17.50
2019-05-29T15:17:48.762Z,17.40
2019-05-29T15:20:53.498Z,17.30
2019-05-29T15:23:57.935Z,17.20
2019-05-29T15:27:02.477Z,17.20
2019-05-29T15:30:08.813Z,17.10
2019-05-29T15:33:14.777Z,17.10
2019-05-29T15:36:19.442Z,17.00
2019-05-29T15:39:23.876Z,17.10
2019-05-29T15:42:28.333Z,17.10
2019-05-29T15:45:32.787Z,17.10
2019-05-29T15:48:37.510Z,17.10
2019-05-29T15:51:42.254Z,17.20
2019-05-29T15:54:46.682Z,17.40
2019-05-29T15:57:51.147Z,17.50
2019-05-29T16:00:55.599Z,17.50
2019-05-29T16:04:00.055Z,17.50
2019-05-29T16:07:04.551Z,17.40
2019-05-29T16:10:13.037Z,17.30
2019-05-29T16:13:17.363Z,17.20
2019-05-29T16:16:21.996Z,17.20
2019-05-29T16:19:26.439Z,17.10
2019-05-29T16:22:30.887Z,17.00
2019-05-29T16:25:40.141Z,17.00
2019-05-29T16:28:41.523Z,16.90
2019-05-29T16:31:45.975Z,16.90
2019-05-29T16:34:50.418Z,16.80
2019-05-29T16:37:54.861Z,16.80
2019-05-29T16:40:59.315Z,16.80
2019-05-29T16:44:04.867Z,16.70
2019-05-29T16:47:09.644Z,16.60
2019-05-29T16:50:16.688Z,16.50
2019-05-29T16:53:21.412Z,16.40
2019-05-29T16:56:25.879Z,16.30
2019-05-29T16:59:30.317Z,16.20
2019-05-29T17:02:34.778Z,15.80
2019-05-29T17:05:39.219Z,15.70
2019-05-29T17:08:43.670Z,15.40
2019-05-29T17:11:48.124Z,15.30
2019-05-29T17:14:52.571Z,15.30
2019-05-29T17:17:57.040Z,15.30
2019-05-29T17:21:01.491Z,15.40
2019-05-29T17:24:06.203Z,15.30
2019-05-29T17:27:10.678Z,15.20
2019-05-29T17:30:21.036Z,15.10
2019-05-29T17:33:25.495Z,15.20
2019-05-29T17:36:29.953Z,15.30
2019-05-29T17:39:34.413Z,15.40
2019-05-29T17:42:38.853Z,15.50
2019-05-29T17:45:43.297Z,15.40
2019-05-29T17:48:47.749Z,15.30
2019-05-29T17:51:52.233Z,15.30
2019-05-29T17:54:56.671Z,15.30
2019-05-29T17:58:01.132Z,15.10
2019-05-29T18:01:05.991Z,15.00
2019-05-29T18:04:10.615Z,15.00
2019-05-29T18:07:16.246Z,15.00
2019-05-29T18:10:22.814Z,15.00
2019-05-29T18:13:27.659Z,15.00
2019-05-29T18:16:32.107Z,15.10
2019-05-29T18:19:36.559Z,15.10
2019-05-29T18:22:41.011Z,15.10
2019-05-29T18:25:45.449Z,15.00
2019-05-29T18:28:50.161Z,14.90
2019-05-29T18:31:54.600Z,14.90
2019-05-29T18:34:59.097Z,14.80
2019-05-29T18:38:03.586Z,14.70
2019-05-29T18:41:08.034Z,14.60
2019-05-29T18:44:12.491Z,14.50
2019-05-29T18:47:16.945Z,14.40
2019-05-29T18:50:21.746Z,14.30
2019-05-29T18:53:26.995Z,14.20
2019-05-29T18:56:32.402Z,14.10
2019-05-29T18:59:36.844Z,14.00
2019-05-29T19:02:41.584Z,13.90
2019-05-29T19:05:46.037Z,13.90
2019-05-29T19:08:50.492Z,13.80
2019-05-29T19:11:54.937Z,13.60
2019-05-29T19:15:01.333Z,13.50
2019-05-29T19:18:06.402Z,13.50
2019-05-29T19:21:13.848Z,13.40
2019-05-29T19:24:18.264Z,13.20
2019-05-29T19:27:34.089Z,13.10
2019-05-29T19:30:29.458Z,13.00
2019-05-29T19:33:34.433Z,12.80
2019-05-29T19:36:38.906Z,12.70
2019-05-29T19:39:43.362Z,12.70
2019-05-29T19:42:47.932Z,12.60
2019-05-29T19:45:53.207Z,12.60
2019-05-29T19:48:57.662Z,12.50
2019-05-29T19:52:02.145Z,12.50
2019-05-29T19:55:11.103Z,12.60
2019-05-29T19:58:16.648Z,12.60
2019-05-29T20:01:30.608Z,12.50
2019-05-29T20:04:28.422Z,12.50
2019-05-29T20:07:33.284Z,12.40
2019-05-29T20:10:38.178Z,12.40
2019-05-29T20:13:42.756Z,12.30
2019-05-29T20:16:47.242Z,12.30
2019-05-29T20:19:51.698Z,12.20
2019-05-29T20:22:56.170Z,12.20
2019-05-29T20:26:00.650Z,12.00
2019-05-29T20:29:08.244Z,11.90
2019-05-29T20:32:36.757Z,11.80
2019-05-29T20:35:28.265Z,11.80
2019-05-29T20:38:33.125Z,11.70
2019-05-29T20:41:39.088Z,11.60
2019-05-29T20:44:44.347Z,11.60
2019-05-29T20:47:49.007Z,11.60
2019-05-29T20:50:53.781Z,11.70
2019-05-29T20:53:58.237Z,11.70
2019-05-29T20:57:04.606Z,11.70
2019-05-29T21:00:15.074Z,11.60
2019-05-29T21:03:19.550Z,11.50
2019-05-29T21:06:24.143Z,11.50
2019-05-29T21:09:28.575Z,11.40
2019-05-29T21:12:33.277Z,11.30
2019-05-29T21:15:37.917Z,11.40
2019-05-29T21:18:42.368Z,11.30
2019-05-29T21:21:46.825Z,11.20
2019-05-29T21:25:01.227Z,11.10
2019-05-29T21:27:57.502Z,11.10
2019-05-29T21:31:01.957Z,11.10
2019-05-29T21:34:07.089Z,11.00
2019-05-29T21:37:11.534Z,11.00
2019-05-29T21:40:16.619Z,11.00
2019-05-29T21:43:21.084Z,10.90
2019-05-29T21:46:25.532Z,10.90
2019-05-29T21:49:49.321Z,10.80
2019-05-29T21:52:53.779Z,10.90
2019-05-29T21:55:58.295Z,10.90
2019-05-29T21:59:04.287Z,10.90
2019-05-29T22:02:10.210Z,10.90
2019-05-29T22:05:14.790Z,10.90
2019-05-29T22:08:19.606Z,10.80
2019-05-29T22:11:24.056Z,10.80
2019-05-29T22:14:29.346Z,10.70
2019-05-29T22:17:34.845Z,10.70
2019-05-29T22:20:40.839Z,10.60
2019-05-29T22:23:45.624Z,10.50
2019-05-29T22:26:51.130Z,10.50
2019-05-29T22:29:55.719Z,10.50
2019-05-29T22:33:01.788Z,10.60
2019-05-29T22:36:06.392Z,10.60
2019-05-29T22:39:10.828Z,10.60
2019-05-29T22:42:15.287Z,10.50
2019-05-29T22:45:20.487Z,10.30
2019-05-29T22:48:24.955Z,10.40
2019-05-29T22:51:29.606Z,10.40
2019-05-29T22:54:34.035Z,10.40
2019-05-29T22:57:38.493Z,10.40
2019-05-29T23:00:43.952Z,10.20
2019-05-29T23:03:48.413Z,10.20
2019-05-29T23:06:54.115Z,10.20
2019-05-29T23:09:58.924Z,10.20
2019-05-29T23:13:05.568Z,10.20
2019-05-29T23:16:09.620Z,10.10
2019-05-29T23:19:14.349Z,10.10
2019-05-29T23:22:18.910Z,10.00
2019-05-29T23:25:23.616Z,10.00
2019-05-29T23:28:28.067Z,9.90
2019-05-29T23:31:32.515Z,9.80
2019-05-29T23:34:37.390Z,9.80
2019-05-29T23:37:42.127Z,9.80
2019-05-29T23:40:46.749Z,9.70
2019-05-29T23:43:51.197Z,9.60
2019-05-29T23:46:55.647Z,9.60
2019-05-29T23:50:00.116Z,9.60
2019-05-29T23:53:04.519Z,9.70
2019-05-29T23:56:08.957Z,9.60
2019-05-29T23:59:13.768Z,9.70
